»·PEaware :: UAL1399 KASE-KDEN

UAL1399 :: KASE-KDEN

FLIGHT INFORMATION

Flight Status: Arrived
Operator:
United Airlines
More flights by this operator :: More flights under this callsign
Pilot: David C. (16084)
Aircraft: SAAB 340
(SF34)
More flights by this aircraft type
Origin: KASE Aspen-Pitkin Co/Sardy
United States
Destination: KDEN Denver Intl
United States
More flights between these airports :: More routes between these airports
Route: LINDZ9 DBL POWDR8
File this flight plan on PilotEdge
Remarks:
Altitude:
(Current/Filed)
17,000ft
Speed:
(Current/Filed)
286kts
Departed: 31-Jul-18 05:52 PM
Arrived: 31-Jul-18 06:29 PM
Distance/Time
Traveled:
108nm/0:37
Distance/Time
To Go:
Arrived

Flight Plot

Page will automatically refresh every two minutes.

Flight plan parsing failed; only flown route is shown


Map Options




Map Legend


Flown Route
Filed Route
Departure Airport
Arrival Airport
Navaid (VOR, NDB)
Fix

Horizontal Profiles

Position Reports

Time Latitude Longitude Heading Altitude Ground
Speed
31-Jul-18 17:20 39.219473 -106.865041 183 7841ft 0kts
31-Jul-18 17:21 39.219473 -106.865041 183 7841ft 0kts
31-Jul-18 17:22 39.219473 -106.865041 183 7841ft 0kts
31-Jul-18 17:23 39.219473 -106.865041 183 7841ft 0kts
31-Jul-18 17:24 39.219473 -106.865041 183 7841ft 0kts
31-Jul-18 17:25 39.219473 -106.865041 183 7841ft 0kts
31-Jul-18 17:26 39.219473 -106.865041 183 7841ft 0kts
31-Jul-18 17:27 39.219473 -106.865041 183 7841ft 0kts
31-Jul-18 17:28 39.219473 -106.865041 183 7841ft 0kts
31-Jul-18 17:29 39.219473 -106.865041 183 7841ft 0kts
31-Jul-18 17:30 39.219473 -106.865041 183 7841ft 0kts
31-Jul-18 17:31 39.219473 -106.865041 183 7841ft 0kts
31-Jul-18 17:32 39.219473 -106.865041 183 7841ft 0kts
31-Jul-18 17:33 39.219473 -106.865041 183 7841ft 0kts
31-Jul-18 17:34 39.219473 -106.865041 183 7841ft 0kts
31-Jul-18 17:35 39.219473 -106.865041 183 7841ft 0kts
31-Jul-18 17:36 39.219473 -106.865041 183 7841ft 0kts
31-Jul-18 17:37 39.219473 -106.865041 183 7841ft 0kts
31-Jul-18 17:38 39.219473 -106.865041 183 7841ft 0kts
31-Jul-18 17:39 39.219473 -106.865041 183 7841ft 0kts
31-Jul-18 17:40 39.219473 -106.865041 183 7841ft 0kts
31-Jul-18 17:41 39.219473 -106.865041 183 7841ft 0kts
31-Jul-18 17:42 39.219473 -106.865041 183 7841ft 0kts
31-Jul-18 17:43 39.219473 -106.865041 183 7841ft 0kts
31-Jul-18 17:44 39.219414 -106.865049 188 7841ft 2kts
31-Jul-18 17:45 39.216649 -106.864524 159 7841ft 16kts
31-Jul-18 17:46 39.212631 -106.862604 159 7841ft 0kts
31-Jul-18 17:47 39.212505 -106.862546 160 7841ft 1kts
31-Jul-18 17:48 39.212351 -106.862488 166 7841ft 0kts
31-Jul-18 17:49 39.212298 -106.862474 171 7841ft 2kts
31-Jul-18 17:50 39.211999 -106.863517 338 7841ft 2kts
31-Jul-18 17:51 39.212083 -106.863558 338 7841ft 0kts
31-Jul-18 17:52 39.212134 -106.863584 337 7841ft 0kts
31-Jul-18 17:53 39.214343 -106.864649 339 7841ft 71kts
31-Jul-18 17:54 39.253462 -106.875084 353 9133ft 178kts
31-Jul-18 17:55 39.271182 -106.933656 276 11128ft 202kts
31-Jul-18 17:56 39.281104 -107.003549 312 12893ft 198kts
31-Jul-18 17:57 39.318509 -107.055643 337 14343ft 200kts
31-Jul-18 17:58 39.346563 -107.006192 79 15798ft 212kts
31-Jul-18 17:59 39.352450 -106.929346 79 16952ft 221kts
31-Jul-18 18:00 39.353373 -106.841734 85 17005ft 260kts
31-Jul-18 18:01 39.353239 -106.745706 86 17028ft 271kts
31-Jul-18 18:02 39.353040 -106.648497 85 17096ft 270kts
31-Jul-18 18:03 39.352684 -106.551655 85 17161ft 269kts
31-Jul-18 18:04 39.346888 -106.455388 100 17164ft 275kts
31-Jul-18 18:05 39.326871 -106.359485 101 17166ft 276kts
31-Jul-18 18:06 39.310003 -106.280267 102 17164ft 276kts
31-Jul-18 18:07 39.286177 -106.168931 102 17165ft 276kts
31-Jul-18 18:08 39.265637 -106.073549 102 17165ft 276kts
31-Jul-18 18:09 39.248406 -105.993878 102 17133ft 277kts
31-Jul-18 18:10 39.224204 -105.882396 102 17067ft 278kts
31-Jul-18 18:11 39.217528 -105.788561 54 17046ft 261kts
31-Jul-18 18:12 39.251237 -105.725672 49 17071ft 258kts
31-Jul-18 18:13 39.301402 -105.640223 48 17108ft 258kts
31-Jul-18 18:14 39.335274 -105.577661 72 17101ft 266kts
31-Jul-18 18:15 39.345670 -105.484584 77 16211ft 265kts
31-Jul-18 18:16 39.356920 -105.388185 77 15148ft 280kts
31-Jul-18 18:17 39.375082 -105.297303 49 14972ft 258kts
31-Jul-18 18:18 39.420828 -105.221278 49 14022ft 268kts
31-Jul-18 18:19 39.466562 -105.146270 49 12854ft 266kts
31-Jul-18 18:20 39.511744 -105.073622 49 11161ft 260kts
31-Jul-18 18:21 39.557323 -105.002344 49 9460ft 255kts
31-Jul-18 18:22 39.599750 -104.937369 48 9015ft 224kts
31-Jul-18 18:23 39.640519 -104.875633 48 8782ft 232kts
31-Jul-18 18:24 39.683185 -104.811608 48 8072ft 221kts
31-Jul-18 18:25 39.716911 -104.761157 48 8005ft 168kts
31-Jul-18 18:26 39.743908 -104.720768 48 7820ft 129kts
31-Jul-18 18:27 39.770293 -104.692336 16 7528ft 131kts
31-Jul-18 18:28 39.809132 -104.688235 3 6838ft 142kts
31-Jul-18 18:29 39.848464 -104.687502 3 5913ft 143kts
31-Jul-18 18:30 39.879272 -104.686971 0 5436ft 36kts
31-Jul-18 18:31 39.884567 -104.685565 89 5436ft 0kts
31-Jul-18 18:32 39.884567 -104.685546 89 5436ft 1kts
31-Jul-18 18:33 39.881753 -104.684771 179 5436ft 17kts
31-Jul-18 18:34 39.876132 -104.684835 179 5436ft 20kts
31-Jul-18 18:35 39.869768 -104.684906 179 5436ft 27kts
31-Jul-18 18:36 39.861173 -104.684970 181 5436ft 31kts
31-Jul-18 18:37 39.856901 -104.682228 89 5436ft 15kts
31-Jul-18 18:38 39.858032 -104.678583 0 5436ft 0kts

Navigation Log

Ident Type
Flight plan parsing failed, navigation log unavailable